createdAt,value
2018-06-08T04:17:41.446Z,91.89
2018-06-08T04:20:11.644Z,92.13
2018-06-08T04:22:47.771Z,91.33
2018-06-08T04:25:22.724Z,91.43
2018-06-08T04:27:53.331Z,90.97
2018-06-08T04:30:25.078Z,91.09
2018-06-08T04:32:57.230Z,91.31
2018-06-08T04:35:28.968Z,91.27
2018-06-08T04:37:58.947Z,90.96
2018-06-08T04:40:29.134Z,90.91
2018-06-08T04:42:59.046Z,90.78
2018-06-08T04:45:31.180Z,90.79
2018-06-08T04:48:01.175Z,91.21
2018-06-08T04:50:30.934Z,90.66
2018-06-08T04:53:01.418Z,89.41
2018-06-08T04:55:33.269Z,89.32
2018-06-08T04:58:03.010Z,90.17
2018-06-08T05:00:33.068Z,89.32
2018-06-08T05:03:21.801Z,89.24
2018-06-08T05:05:53.310Z,89.84
2018-06-08T05:08:23.566Z,89.51
2018-06-08T05:11:06.999Z,89.74
2018-06-08T05:13:38.221Z,90.14
2018-06-08T05:16:08.511Z,89.81
2018-06-08T05:18:38.657Z,89.81
2018-06-08T05:21:14.027Z,90.24
2018-06-08T05:23:44.150Z,90.33
2018-06-08T05:26:14.070Z,89.84
2018-06-08T05:28:46.033Z,89.67
2018-06-08T05:31:16.478Z,89.82
2018-06-08T05:36:44.041Z,89.12
2018-06-08T05:39:16.512Z,89.72
2018-06-08T05:41:46.946Z,89.44
2018-06-08T05:46:59.772Z,88.96
2018-06-08T05:49:29.965Z,89.25
2018-06-08T05:52:09.789Z,89.13
2018-06-08T05:54:40.158Z,89.40
2018-06-08T05:57:11.542Z,89.03
2018-06-08T05:59:41.626Z,88.86
2018-06-08T06:02:11.999Z,89.01
2018-06-08T06:04:43.946Z,88.37
2018-06-08T06:07:19.453Z,88.06
2018-06-08T06:09:49.629Z,87.46
2018-06-08T06:12:20.804Z,88.32
2018-06-08T06:14:54.839Z,86.96
2018-06-08T06:17:25.032Z,85.58
2018-06-08T06:19:54.974Z,86.22
2018-06-08T06:22:25.373Z,85.34
2018-06-08T06:24:55.167Z,84.79
2018-06-08T06:27:26.182Z,83.88
2018-06-08T06:29:56.932Z,84.03
2018-06-08T06:32:28.540Z,83.69
2018-06-08T06:34:58.500Z,82.28
2018-06-08T06:37:28.164Z,82.12
2018-06-08T06:39:57.938Z,81.80
2018-06-08T06:42:27.661Z,80.47
2018-06-08T06:44:58.426Z,80.71
2018-06-08T06:47:28.425Z,80.64
2018-06-08T06:50:00.488Z,79.58
2018-06-08T06:52:34.737Z,79.43
2018-06-08T06:55:10.074Z,78.82
2018-06-08T06:57:41.104Z,80.00
2018-06-08T07:00:12.344Z,80.23
2018-06-08T07:02:45.523Z,79.24
2018-06-08T07:05:17.462Z,80.21
2018-06-08T07:17:03.616Z,78.30
2018-06-08T07:19:46.372Z,77.23
2018-06-08T07:22:16.576Z,75.15
2018-06-08T07:24:46.779Z,75.57
2018-06-08T07:27:16.843Z,75.44
2018-06-08T07:29:50.495Z,75.11
2018-06-08T07:32:20.597Z,74.66
2018-06-08T07:34:51.101Z,75.33
2018-06-08T07:37:21.224Z,74.84
2018-06-08T07:39:51.819Z,73.24
2018-06-08T07:42:21.580Z,73.13
2018-06-08T07:44:52.006Z,71.88
2018-06-08T07:47:22.085Z,72.29
2018-06-08T07:49:56.273Z,72.97
2018-06-08T07:52:26.097Z,75.20
2018-06-08T07:54:57.755Z,71.91
2018-06-08T07:57:28.542Z,71.13
2018-06-08T08:00:00.158Z,68.71
2018-06-08T08:02:29.865Z,69.05
2018-06-08T08:05:00.493Z,69.90
2018-06-08T08:07:30.412Z,69.50
2018-06-08T08:10:00.432Z,69.39
2018-06-08T08:12:30.958Z,67.66
2018-06-08T08:15:00.854Z,69.78
2018-06-08T08:17:30.932Z,69.57
2018-06-08T08:20:01.929Z,69.52
2018-06-08T08:22:33.306Z,67.48
2018-06-08T08:25:03.193Z,66.11
2018-06-08T08:27:38.855Z,67.25
2018-06-08T08:30:09.124Z,66.97
2018-06-08T08:32:40.783Z,65.35
2018-06-08T08:35:11.199Z,64.82
2018-06-08T08:37:41.523Z,63.37
2018-06-08T08:40:11.753Z,63.32
2018-06-08T08:42:45.694Z,59.01
2018-06-08T08:45:33.371Z,55.04
2018-06-08T08:48:05.474Z,54.09
2018-06-08T08:50:35.442Z,52.05
2018-06-08T08:53:13.013Z,52.50
2018-06-08T08:55:43.304Z,51.58
2018-06-08T08:58:15.222Z,49.73
2018-06-08T09:00:45.414Z,47.04
2018-06-08T09:03:15.813Z,47.10
2018-06-08T09:05:46.194Z,47.07
2018-06-08T09:08:16.764Z,46.91
2018-06-08T09:10:47.211Z,45.93
2018-06-08T09:13:17.047Z,47.12
2018-06-08T09:15:46.789Z,43.73
2018-06-08T09:18:16.795Z,45.73
2018-06-08T09:20:59.492Z,43.09
2018-06-08T09:23:30.384Z,41.93
2018-06-08T09:26:02.815Z,43.38
2018-06-08T09:28:34.345Z,43.50
2018-06-08T09:31:08.868Z,41.39
2018-06-08T09:33:38.684Z,42.87
2018-06-08T09:36:09.452Z,42.66
2018-06-08T09:38:39.489Z,41.86
2018-06-08T09:41:16.833Z,39.39
2018-06-08T09:43:47.164Z,39.38
2018-06-08T09:46:18.301Z,38.57
2018-06-08T09:48:51.718Z,42.05
2018-06-08T09:51:21.538Z,41.22
2018-06-08T09:53:52.939Z,42.77
2018-06-08T09:56:24.186Z,41.12
2018-06-08T09:58:55.419Z,40.21
2018-06-08T10:01:27.198Z,41.04
2018-06-08T10:03:57.288Z,39.75
2018-06-08T10:07:15.734Z,39.04
2018-06-08T10:09:47.248Z,39.95
2018-06-08T10:12:17.084Z,40.03
2018-06-08T10:14:48.930Z,41.41
2018-06-08T10:17:23.715Z,38.66
2018-06-08T10:19:53.917Z,40.87
2018-06-08T10:22:24.039Z,37.95
2018-06-08T10:24:59.763Z,38.29
2018-06-08T10:27:33.555Z,37.86
2018-06-08T10:30:06.486Z,36.04
2018-06-08T10:32:42.257Z,35.78
2018-06-08T10:35:21.975Z,35.99
2018-06-08T10:37:52.739Z,37.23
2018-06-08T10:40:25.633Z,37.32
2018-06-08T10:42:56.350Z,38.66
2018-06-08T10:45:26.884Z,39.38
2018-06-08T10:48:00.652Z,43.10
2018-06-08T10:50:30.781Z,44.21
2018-06-08T10:53:01.340Z,44.40
2018-06-08T10:55:33.944Z,46.67
2018-06-08T10:58:04.430Z,45.33
2018-06-08T11:00:34.353Z,50.41
2018-06-08T11:03:06.083Z,51.28
2018-06-08T11:05:38.279Z,49.55
2018-06-08T11:08:11.177Z,51.03
2018-06-08T11:10:42.779Z,52.04
2018-06-08T11:13:13.766Z,52.81
2018-06-08T11:15:43.737Z,49.13
2018-06-08T11:18:14.366Z,48.47
2018-06-08T11:21:01.395Z,45.58
2018-06-08T11:23:32.173Z,45.25
2018-06-08T11:26:02.329Z,41.84
2018-06-08T11:28:32.604Z,40.93
2018-06-08T11:31:02.481Z,40.56
2018-06-08T11:33:32.443Z,40.12
2018-06-08T11:36:02.757Z,36.71
2018-06-08T11:38:49.673Z,34.64
2018-06-08T11:47:16.343Z,42.60
2018-06-08T11:49:46.597Z,45.07
2018-06-08T11:55:11.926Z,38.96
2018-06-08T11:57:41.752Z,40.35
2018-06-08T12:00:14.446Z,41.64
2018-06-08T12:02:44.088Z,43.52
2018-06-08T12:05:15.923Z,45.57
2018-06-08T12:07:47.465Z,43.39
2018-06-08T12:10:17.200Z,41.95
2018-06-08T12:12:51.906Z,42.22
2018-06-08T12:15:22.431Z,45.38
2018-06-08T12:17:52.350Z,48.30
2018-06-08T12:20:22.714Z,48.92
2018-06-08T12:22:54.500Z,49.41
2018-06-08T12:25:25.357Z,50.53
2018-06-08T12:27:55.522Z,47.18
2018-06-08T12:30:29.443Z,41.79
2018-06-08T12:33:00.439Z,42.22
2018-06-08T12:35:30.796Z,45.05
2018-06-08T12:38:03.760Z,45.37
2018-06-08T12:40:35.254Z,42.32
2018-06-08T12:43:06.490Z,43.23
2018-06-08T12:45:37.554Z,43.24
2018-06-08T12:48:10.487Z,44.47
2018-06-08T12:50:43.086Z,45.62
2018-06-08T12:53:14.098Z,42.07
2018-06-08T12:55:43.865Z,39.51
2018-06-08T12:58:14.768Z,39.96
2018-06-08T13:00:44.905Z,38.68
2018-06-08T13:03:14.763Z,36.55
2018-06-08T13:05:45.092Z,36.20
2018-06-08T13:08:16.872Z,33.54
2018-06-08T13:10:46.667Z,35.34
2018-06-08T13:13:19.388Z,37.52
2018-06-08T13:15:49.354Z,40.48
2018-06-08T13:18:19.527Z,43.72
2018-06-08T13:20:50.740Z,36.79
2018-06-08T13:23:22.975Z,34.02
2018-06-08T13:25:58.994Z,36.08
2018-06-08T13:28:29.017Z,36.69
2018-06-08T13:30:59.956Z,36.61
2018-06-08T13:33:30.532Z,36.74
2018-06-08T13:36:03.434Z,36.73
2018-06-08T13:38:33.756Z,35.58
2018-06-08T13:41:06.462Z,31.65
2018-06-08T13:43:37.499Z,28.06
2018-06-08T13:46:17.140Z,28.15
2018-06-08T13:48:52.666Z,27.20
2018-06-08T13:51:24.500Z,29.08
2018-06-08T13:53:56.528Z,31.27
2018-06-08T13:56:27.657Z,30.58
2018-06-08T13:58:58.571Z,28.66
2018-06-08T14:01:29.457Z,29.53
2018-06-08T14:04:03.051Z,28.54
2018-06-08T14:06:33.788Z,30.44
2018-06-08T14:09:08.842Z,34.38
2018-06-08T14:11:47.393Z,40.27
2018-06-08T14:14:25.169Z,39.87
2018-06-08T14:16:57.740Z,40.15
2018-06-08T14:19:27.944Z,42.47
2018-06-08T14:21:58.130Z,44.12
2018-06-08T14:24:28.390Z,46.92
2018-06-08T14:26:58.336Z,47.92
2018-06-08T14:29:28.288Z,49.47
2018-06-08T14:31:59.175Z,46.05
2018-06-08T14:34:30.635Z,47.40
2018-06-08T14:37:02.267Z,47.76
2018-06-08T14:39:33.477Z,45.68
2018-06-08T14:42:03.614Z,45.61
2018-06-08T14:44:33.511Z,42.28
2018-06-08T14:47:04.260Z,37.08
2018-06-08T14:49:36.513Z,34.70
2018-06-08T14:52:07.761Z,31.86
2018-06-08T14:54:38.182Z,31.40
2018-06-08T14:57:11.189Z,28.77
2018-06-08T14:59:42.646Z,28.79
2018-06-08T15:02:16.412Z,33.01
2018-06-08T15:04:48.021Z,33.79
2018-06-08T15:07:21.655Z,34.21
2018-06-08T15:09:55.304Z,34.03
2018-06-08T15:12:25.276Z,36.47
2018-06-08T15:14:55.605Z,37.52
2018-06-08T15:17:25.759Z,38.25
2018-06-08T15:19:58.058Z,34.42
2018-06-08T15:22:30.691Z,31.61
2018-06-08T15:25:02.254Z,32.50
2018-06-08T15:27:34.561Z,35.39
2018-06-08T15:30:21.746Z,36.61
2018-06-08T15:33:15.549Z,33.83
2018-06-08T15:35:47.283Z,37.09
2018-06-08T15:38:18.473Z,40.67
2018-06-08T15:40:50.920Z,43.59
2018-06-08T15:43:21.146Z,42.63
2018-06-08T15:45:51.102Z,43.66
2018-06-08T15:48:23.784Z,43.67
2018-06-08T15:50:53.761Z,41.95
2018-06-08T15:53:23.835Z,40.79
2018-06-08T15:55:53.436Z,42.48
2018-06-08T15:58:24.539Z,42.33
2018-06-08T16:00:54.760Z,43.22
2018-06-08T16:03:24.643Z,43.54
2018-06-08T16:05:54.705Z,43.78
2018-06-08T16:08:25.361Z,43.44
2018-06-08T16:10:56.299Z,44.19
2018-06-08T16:13:26.202Z,44.76
2018-06-08T16:15:56.124Z,44.91
2018-06-08T16:18:40.200Z,45.35
2018-06-08T16:21:14.848Z,46.29
2018-06-08T16:23:46.055Z,47.32
2018-06-08T16:26:20.813Z,45.17
2018-06-08T16:29:07.583Z,43.01
2018-06-08T16:31:38.680Z,43.27
2018-06-08T16:34:11.816Z,44.98
2018-06-08T16:36:48.302Z,45.95
2018-06-08T16:39:20.174Z,46.50
2018-06-08T16:41:51.446Z,42.91
2018-06-08T16:44:29.793Z,45.70
2018-06-08T16:47:00.600Z,48.13
2018-06-08T16:49:33.120Z,49.04
2018-06-08T16:52:03.837Z,47.49
2018-06-08T16:54:35.959Z,48.08
2018-06-08T16:57:08.827Z,50.93
2018-06-08T16:59:39.611Z,48.72
2018-06-08T17:02:34.452Z,48.77
2018-06-08T17:05:49.099Z,49.49
2018-06-08T17:11:28.593Z,49.94
2018-06-08T17:14:00.672Z,46.38
2018-06-08T17:16:32.731Z,46.52
2018-06-08T17:19:02.690Z,45.94
2018-06-08T17:21:34.260Z,46.68
2018-06-08T17:24:07.746Z,46.39
2018-06-08T17:26:41.185Z,47.21
2018-06-08T17:29:15.813Z,48.47
2018-06-08T17:31:49.612Z,50.17
2018-06-08T17:34:21.179Z,52.07
2018-06-08T17:36:53.156Z,52.19
2018-06-08T17:39:26.276Z,52.72
2018-06-08T17:41:57.869Z,53.73
2018-06-08T17:44:28.802Z,54.50
2018-06-08T17:47:02.108Z,54.24
2018-06-08T17:49:32.926Z,54.55
2018-06-08T17:52:03.187Z,55.10
2018-06-08T17:54:35.101Z,55.96
2018-06-08T17:57:08.159Z,57.48
2018-06-08T17:59:41.211Z,57.51
2018-06-08T18:02:11.708Z,57.29
2018-06-08T18:04:48.208Z,57.92
2018-06-08T18:07:18.837Z,57.87
2018-06-08T18:09:53.029Z,61.08
2018-06-08T18:12:30.332Z,61.48
2018-06-08T18:15:02.004Z,61.27
2018-06-08T18:17:43.864Z,61.68
2018-06-08T18:20:22.106Z,62.24
2018-06-08T18:22:54.132Z,62.52
2018-06-08T18:25:28.008Z,63.52
2018-06-08T18:28:03.208Z,67.39
2018-06-08T18:30:34.449Z,67.78
2018-06-08T18:33:06.369Z,68.93
2018-06-08T18:35:37.679Z,70.87
2018-06-08T18:38:09.344Z,71.87
2018-06-08T18:40:40.753Z,71.48
2018-06-08T18:45:57.443Z,73.43
2018-06-08T18:48:28.499Z,73.26
2018-06-08T18:50:59.795Z,74.91
2018-06-08T18:53:34.959Z,75.62
2018-06-08T18:56:09.059Z,76.32
2018-06-08T18:58:42.257Z,77.91
2018-06-08T19:01:15.428Z,76.87
2018-06-08T19:03:47.176Z,78.48
2018-06-08T19:06:28.589Z,79.70
2018-06-08T19:09:05.427Z,80.32
2018-06-08T19:11:43.041Z,79.84
2018-06-08T19:14:16.938Z,80.28
2018-06-08T19:16:51.040Z,79.92
2018-06-08T19:19:23.339Z,79.66
2018-06-08T19:21:58.006Z,79.46
2018-06-08T19:24:31.128Z,80.64
2018-06-08T19:27:02.586Z,81.91
2018-06-08T19:29:36.388Z,82.90
2018-06-08T19:32:08.293Z,83.56
2018-06-08T19:34:39.515Z,84.47
2018-06-08T19:37:10.755Z,84.04
2018-06-08T19:39:40.846Z,85.81
2018-06-08T19:42:13.762Z,86.88
2018-06-08T19:47:46.398Z,86.32
2018-06-08T19:52:55.243Z,86.07
2018-06-08T19:55:25.812Z,86.57
2018-06-08T19:57:57.693Z,86.71
2018-06-08T20:00:30.273Z,87.81
2018-06-08T20:03:03.262Z,87.67
2018-06-08T20:05:35.708Z,87.67
2018-06-08T20:08:07.354Z,88.34
2018-06-08T20:10:40.417Z,87.62
2018-06-08T20:13:12.120Z,88.44
2018-06-08T20:15:42.456Z,89.08
2018-06-08T20:20:53.993Z,88.51
2018-06-08T20:23:24.141Z,88.63
2018-06-08T20:26:00.834Z,88.67
2018-06-08T20:28:32.315Z,88.78
2018-06-08T20:31:05.738Z,88.69
2018-06-08T20:33:36.263Z,88.36
2018-06-08T20:36:10.126Z,87.89
2018-06-08T20:39:02.463Z,87.50
2018-06-08T20:41:33.665Z,87.42
2018-06-08T20:44:17.354Z,87.37
2018-06-08T20:46:51.607Z,87.79
2018-06-08T20:49:25.598Z,87.97
2018-06-08T20:51:55.601Z,87.80
2018-06-08T20:54:42.547Z,87.76
2018-06-08T20:57:24.451Z,87.49
2018-06-08T20:59:58.022Z,87.04
2018-06-08T21:02:30.508Z,87.68
2018-06-08T21:05:07.098Z,87.57
2018-06-08T21:07:41.348Z,87.30
2018-06-08T21:10:17.765Z,87.79
2018-06-08T21:12:48.502Z,88.52
2018-06-08T21:15:20.825Z,89.11
2018-06-08T21:17:50.986Z,89.63
2018-06-08T21:20:27.912Z,89.49
2018-06-08T21:22:57.924Z,89.75
2018-06-08T21:25:28.765Z,90.29
2018-06-08T21:28:01.246Z,90.68
2018-06-08T21:30:37.075Z,91.34
2018-06-08T21:33:17.282Z,91.81
2018-06-08T21:35:50.245Z,92.15
2018-06-08T22:16:56.480Z,93.54
2018-06-08T22:19:42.599Z,93.28
2018-06-08T22:25:13.035Z,93.64
2018-06-08T22:27:57.295Z,93.15
2018-06-08T22:39:31.886Z,93.16
2018-06-08T22:45:02.313Z,93.22
2018-06-08T22:53:15.179Z,93.43
2018-06-08T22:55:58.657Z,93.47
2018-06-08T22:58:39.834Z,93.66
2018-06-08T23:03:03.195Z,93.38
2018-06-08T23:24:47.527Z,92.93
2018-06-08T23:31:08.580Z,92.88
2018-06-08T23:45:43.996Z,92.39
